sensor_id;sensor_type;location;lat;lon;timestamp;pressure;altitude;pressure_sealevel;temperature;humidity
69214;BME280;56325;47.030;18.518;2023-05-10T00:02:06;100608.34;;;13.01;66.45
69214;BME280;56325;47.030;18.518;2023-05-10T00:04:41;100604.94;;;12.73;67.33
69214;BME280;56325;47.030;18.518;2023-05-10T04:32:53;100535.69;;;11.47;73.38
69214;BME280;56325;47.030;18.518;2023-05-10T04:35:28;100535.69;;;11.47;73.38
69214;BME280;56325;47.030;18.518;2023-05-10T04:38:02;100540.09;;;12.78;91.15
69214;BME280;56325;47.030;18.518;2023-05-10T04:40:37;100542.81;;;12.87;76.08
69214;BME280;56325;47.030;18.518;2023-05-10T04:43:11;100545.75;;;12.32;72.13
69214;BME280;56325;47.030;18.518;2023-05-10T04:45:46;100555.47;;;12.00;72.50
69214;BME280;56325;47.030;18.518;2023-05-10T04:48:22;100549.91;;;11.64;73.15
69214;BME280;56325;47.030;18.518;2023-05-10T04:50:56;100552.72;;;11.82;73.08
69214;BME280;56325;47.030;18.518;2023-05-10T04:53:31;100555.31;;;11.86;72.98
69214;BME280;56325;47.030;18.518;2023-05-10T04:56:06;100551.34;;;11.87;72.86
69214;BME280;56325;47.030;18.518;2023-05-10T04:58:40;100549.31;;;11.69;73.20
69214;BME280;56325;47.030;18.518;2023-05-10T05:01:15;100548.72;;;11.92;73.00
69214;BME280;56325;47.030;18.518;2023-05-10T05:03:51;100553.91;;;11.72;73.95
69214;BME280;56325;47.030;18.518;2023-05-10T05:06:27;100557.28;;;11.67;73.93
69214;BME280;56325;47.030;18.518;2023-05-10T05:09:01;100552.41;;;11.80;74.00
69214;BME280;56325;47.030;18.518;2023-05-10T05:11:36;100558.84;;;11.95;73.67
69214;BME280;56325;47.030;18.518;2023-05-10T05:14:10;100554.41;;;11.98;73.60
69214;BME280;56325;47.030;18.518;2023-05-10T05:16:45;100554.66;;;12.18;73.35
69214;BME280;56325;47.030;18.518;2023-05-10T05:19:20;100555.09;;;12.26;72.60
69214;BME280;56325;47.030;18.518;2023-05-10T05:21:55;100564.91;;;12.18;73.06
69214;BME280;56325;47.030;18.518;2023-05-10T05:24:34;100568.91;;;12.17;72.94
69214;BME280;56325;47.030;18.518;2023-05-10T05:27:11;100568.75;;;12.20;73.04
69214;BME280;56325;47.030;18.518;2023-05-10T05:29:45;100564.00;;;12.21;72.58
69214;BME280;56325;47.030;18.518;2023-05-10T05:32:20;100563.03;;;12.42;72.34
69214;BME280;56325;47.030;18.518;2023-05-10T05:34:56;100558.59;;;13.20;85.58
69214;BME280;56325;47.030;18.518;2023-05-10T05:37:31;100556.97;;;14.29;80.82
69214;BME280;56325;47.030;18.518;2023-05-10T05:40:06;100571.44;;;13.56;69.41
69214;BME280;56325;47.030;18.518;2023-05-10T05:42:41;100562.00;;;13.05;70.08
69214;BME280;56325;47.030;18.518;2023-05-10T05:45:15;100561.50;;;12.92;70.83
69214;BME280;56325;47.030;18.518;2023-05-10T05:47:50;100566.09;;;12.95;70.85
69214;BME280;56325;47.030;18.518;2023-05-10T05:50:26;100568.38;;;12.97;70.75
69214;BME280;56325;47.030;18.518;2023-05-10T05:53:01;100567.50;;;13.14;70.62
69214;BME280;56325;47.030;18.518;2023-05-10T05:55:35;100569.13;;;13.30;70.20
69214;BME280;56325;47.030;18.518;2023-05-10T05:58:10;100573.41;;;13.31;70.29
69214;BME280;56325;47.030;18.518;2023-05-10T06:03:28;100557.69;;;14.00;68.00
69214;BME280;56325;47.030;18.518;2023-05-10T06:06:04;100557.69;;;14.00;68.00
69214;BME280;56325;47.030;18.518;2023-05-10T06:08:38;100571.72;;;13.58;69.26
69214;BME280;56325;47.030;18.518;2023-05-10T06:11:13;100567.69;;;13.83;68.96
69214;BME280;56325;47.030;18.518;2023-05-10T06:13:47;100565.50;;;13.87;68.38
69214;BME280;56325;47.030;18.518;2023-05-10T06:16:22;100566.81;;;13.76;68.37
69214;BME280;56325;47.030;18.518;2023-05-10T06:18:58;100567.69;;;13.83;68.33
69214;BME280;56325;47.030;18.518;2023-05-10T06:21:33;100570.75;;;13.85;67.44
69214;BME280;56325;47.030;18.518;2023-05-10T06:24:07;100570.91;;;14.34;72.22
69214;BME280;56325;47.030;18.518;2023-05-10T06:26:42;100576.50;;;14.25;66.01
69214;BME280;56325;47.030;18.518;2023-05-10T06:29:16;100567.84;;;14.18;66.28
69214;BME280;56325;47.030;18.518;2023-05-10T06:31:51;100576.59;;;14.16;66.07
69214;BME280;56325;47.030;18.518;2023-05-10T06:34:27;100576.41;;;14.20;66.26
69214;BME280;56325;47.030;18.518;2023-05-10T06:37:01;100577.66;;;14.33;66.13
69214;BME280;56325;47.030;18.518;2023-05-10T06:39:36;100575.41;;;14.47;66.28
69214;BME280;56325;47.030;18.518;2023-05-10T06:42:11;100579.81;;;14.53;65.37
69214;BME280;56325;47.030;18.518;2023-05-10T06:44:51;100588.47;;;14.61;65.59
69214;BME280;56325;47.030;18.518;2023-05-10T06:47:26;100573.50;;;14.53;65.18
69214;BME280;56325;47.030;18.518;2023-05-10T06:50:02;100576.59;;;14.75;65.27
69214;BME280;56325;47.030;18.518;2023-05-10T06:52:57;100583.94;;;14.93;64.92
69214;BME280;56325;47.030;18.518;2023-05-10T06:55:51;100569.88;;;15.31;64.63
69214;BME280;56325;47.030;18.518;2023-05-10T06:58:26;100576.03;;;15.21;62.09
69214;BME280;56325;47.030;18.518;2023-05-10T07:01:03;100566.88;;;15.15;62.53
69214;BME280;56325;47.030;18.518;2023-05-10T07:03:38;100577.41;;;15.11;63.18
69214;BME280;56325;47.030;18.518;2023-05-10T07:06:14;100579.44;;;15.30;63.05
69214;BME280;56325;47.030;18.518;2023-05-10T07:09:04;100567.69;;;15.35;62.14
69214;BME280;56325;47.030;18.518;2023-05-10T07:11:40;100576.22;;;15.52;65.76
69214;BME280;56325;47.030;18.518;2023-05-10T07:14:15;100573.00;;;16.00;67.32
69214;BME280;56325;47.030;18.518;2023-05-10T07:16:50;100569.56;;;15.64;61.52
69214;BME280;56325;47.030;18.518;2023-05-10T07:19:25;100563.72;;;15.83;61.70
69214;BME280;56325;47.030;18.518;2023-05-10T07:22:00;100564.75;;;15.59;61.02
69214;BME280;56325;47.030;18.518;2023-05-10T07:24:35;100571.63;;;15.69;61.32
69214;BME280;56325;47.030;18.518;2023-05-10T07:27:09;100575.94;;;15.50;60.50
69214;BME280;56325;47.030;18.518;2023-05-10T07:29:44;100567.25;;;15.57;60.64
69214;BME280;56325;47.030;18.518;2023-05-10T07:32:18;100571.69;;;15.34;60.68
69214;BME280;56325;47.030;18.518;2023-05-10T07:34:53;100563.44;;;15.20;61.44
69214;BME280;56325;47.030;18.518;2023-05-10T07:37:29;100554.97;;;15.08;61.87
69214;BME280;56325;47.030;18.518;2023-05-10T07:40:05;100562.91;;;15.36;61.21
69214;BME280;56325;47.030;18.518;2023-05-10T07:42:39;100566.16;;;15.34;62.02
69214;BME280;56325;47.030;18.518;2023-05-10T07:45:14;100564.53;;;15.07;61.39
69214;BME280;56325;47.030;18.518;2023-05-10T07:47:49;100563.22;;;15.23;62.32
69214;BME280;56325;47.030;18.518;2023-05-10T07:50:24;100554.28;;;15.14;61.90
69214;BME280;56325;47.030;18.518;2023-05-10T07:53:00;100559.16;;;15.80;60.72
69214;BME280;56325;47.030;18.518;2023-05-10T07:55:35;100545.03;;;16.61;63.54
69214;BME280;56325;47.030;18.518;2023-05-10T07:58:09;100544.94;;;17.18;58.46
69214;BME280;56325;47.030;18.518;2023-05-10T08:00:44;100551.47;;;17.10;56.79
69214;BME280;56325;47.030;18.518;2023-05-10T08:03:19;100548.41;;;16.70;56.75
69214;BME280;56325;47.030;18.518;2023-05-10T08:05:53;100551.25;;;16.76;57.46
69214;BME280;56325;47.030;18.518;2023-05-10T08:08:29;100552.88;;;16.94;55.97
69214;BME280;56325;47.030;18.518;2023-05-10T08:11:04;100555.31;;;16.81;56.71
69214;BME280;56325;47.030;18.518;2023-05-10T08:13:38;100543.94;;;17.16;57.44
69214;BME280;56325;47.030;18.518;2023-05-10T08:16:13;100550.19;;;17.05;55.06
69214;BME280;56325;47.030;18.518;2023-05-10T08:18:47;100549.34;;;16.93;55.24
69214;BME280;56325;47.030;18.518;2023-05-10T08:21:23;100543.88;;;17.10;56.15
69214;BME280;56325;47.030;18.518;2023-05-10T08:24:00;100546.50;;;17.25;54.98
69214;BME280;56325;47.030;18.518;2023-05-10T08:26:34;100553.22;;;17.07;53.61
69214;BME280;56325;47.030;18.518;2023-05-10T08:29:09;100548.09;;;17.48;54.32
69214;BME280;56325;47.030;18.518;2023-05-10T08:31:43;100548.09;;;17.48;53.54
69214;BME280;56325;47.030;18.518;2023-05-10T08:34:18;100539.25;;;17.50;53.13
69214;BME280;56325;47.030;18.518;2023-05-10T08:36:53;100537.66;;;17.91;52.79
69214;BME280;56325;47.030;18.518;2023-05-10T08:39:29;100535.75;;;17.60;51.13
69214;BME280;56325;47.030;18.518;2023-05-10T08:42:05;100546.25;;;17.88;51.34
69214;BME280;56325;47.030;18.518;2023-05-10T08:44:40;100550.56;;;17.94;51.32
69214;BME280;56325;47.030;18.518;2023-05-10T08:47:16;100540.19;;;17.95;51.06
69214;BME280;56325;47.030;18.518;2023-05-10T08:49:53;100543.19;;;17.75;51.25
69214;BME280;56325;47.030;18.518;2023-05-10T08:52:30;100541.50;;;18.16;51.76
69214;BME280;56325;47.030;18.518;2023-05-10T08:55:07;100540.75;;;18.16;51.38
69214;BME280;56325;47.030;18.518;2023-05-10T08:57:41;100545.22;;;17.80;51.36
69214;BME280;56325;47.030;18.518;2023-05-10T09:00:17;100551.06;;;17.87;52.05
69214;BME280;56325;47.030;18.518;2023-05-10T09:02:52;100549.78;;;17.83;51.67
69214;BME280;56325;47.030;18.518;2023-05-10T14:03:13;100314.44;;;21.90;37.88
69214;BME280;56325;47.030;18.518;2023-05-10T14:05:48;100314.44;;;21.90;37.88
69214;BME280;56325;47.030;18.518;2023-05-10T14:08:22;100317.47;;;21.47;39.41
69214;BME280;56325;47.030;18.518;2023-05-10T14:10:57;100313.47;;;21.05;39.29
69214;BME280;56325;47.030;18.518;2023-05-10T14:13:31;100309.84;;;21.10;38.92
69214;BME280;56325;47.030;18.518;2023-05-10T14:16:06;100307.66;;;21.03;38.13
69214;BME280;56325;47.030;18.518;2023-05-10T14:18:42;100299.16;;;21.46;40.07
69214;BME280;56325;47.030;18.518;2023-05-10T14:21:16;100310.00;;;21.36;38.50
69214;BME280;56325;47.030;18.518;2023-05-10T14:23:51;100311.87;;;21.47;38.83
69214;BME280;56325;47.030;18.518;2023-05-10T14:26:25;100313.56;;;21.18;39.69
69214;BME280;56325;47.030;18.518;2023-05-10T14:29:00;100306.31;;;20.90;39.13
69214;BME280;56325;47.030;18.518;2023-05-10T14:31:35;100309.62;;;20.89;39.83
69214;BME280;56325;47.030;18.518;2023-05-10T14:34:11;100303.81;;;20.87;39.51
69214;BME280;56325;47.030;18.518;2023-05-10T14:36:45;100309.09;;;20.90;39.98
69214;BME280;56325;47.030;18.518;2023-05-10T14:39:20;100305.16;;;21.18;40.58
69214;BME280;56325;47.030;18.518;2023-05-10T14:41:54;100304.56;;;21.06;40.08
69214;BME280;56325;47.030;18.518;2023-05-10T14:44:29;100304.97;;;20.78;38.39
69214;BME280;56325;47.030;18.518;2023-05-10T14:47:03;100296.25;;;21.01;38.54
69214;BME280;56325;47.030;18.518;2023-05-10T14:49:39;100298.00;;;21.22;39.06
69214;BME280;56325;47.030;18.518;2023-05-10T14:52:14;100295.84;;;21.47;39.21
69214;BME280;56325;47.030;18.518;2023-05-10T14:54:48;100286.38;;;22.09;38.17
69214;BME280;56325;47.030;18.518;2023-05-10T14:57:23;100286.00;;;21.99;37.54
69214;BME280;56325;47.030;18.518;2023-05-10T14:59:57;100280.66;;;22.28;37.90
69214;BME280;56325;47.030;18.518;2023-05-10T15:02:32;100279.03;;;22.45;37.97
69214;BME280;56325;47.030;18.518;2023-05-10T15:05:09;100289.81;;;22.02;37.48
69214;BME280;56325;47.030;18.518;2023-05-10T15:07:44;100297.75;;;21.98;37.72
69214;BME280;56325;47.030;18.518;2023-05-10T15:10:18;100298.69;;;21.61;37.22
69214;BME280;56325;47.030;18.518;2023-05-10T15:12:53;100294.87;;;21.45;38.16
69214;BME280;56325;47.030;18.518;2023-05-10T15:15:27;100297.31;;;21.35;38.20
69214;BME280;56325;47.030;18.518;2023-05-10T15:18:01;100291.78;;;21.75;38.64
69214;BME280;56325;47.030;18.518;2023-05-10T15:20:37;100296.50;;;21.53;38.29
69214;BME280;56325;47.030;18.518;2023-05-10T15:23:12;100286.72;;;21.60;38.90
69214;BME280;56325;47.030;18.518;2023-05-10T15:25:46;100283.31;;;21.35;38.25
69214;BME280;56325;47.030;18.518;2023-05-10T15:28:22;100292.47;;;21.17;39.35
69214;BME280;56325;47.030;18.518;2023-05-10T15:30:56;100297.53;;;21.00;39.36
69214;BME280;56325;47.030;18.518;2023-05-10T15:33:31;100297.63;;;20.94;39.99
69214;BME280;56325;47.030;18.518;2023-05-10T15:36:07;100294.00;;;20.80;41.68
69214;BME280;56325;47.030;18.518;2023-05-10T15:38:41;100292.56;;;20.92;41.44
69214;BME280;56325;47.030;18.518;2023-05-10T15:41:15;100292.88;;;20.89;40.53
69214;BME280;56325;47.030;18.518;2023-05-10T15:43:50;100285.00;;;20.87;40.48
69214;BME280;56325;47.030;18.518;2023-05-10T15:46:24;100295.84;;;20.78;39.63
69214;BME280;56325;47.030;18.518;2023-05-10T15:48:59;100292.72;;;20.81;39.07
69214;BME280;56325;47.030;18.518;2023-05-10T15:51:35;100294.16;;;20.88;38.68
69214;BME280;56325;47.030;18.518;2023-05-10T15:54:09;100282.28;;;21.01;38.26
69214;BME280;56325;47.030;18.518;2023-05-10T15:56:43;100280.44;;;21.41;38.63
69214;BME280;56325;47.030;18.518;2023-05-10T15:59:18;100271.97;;;21.73;37.03
69214;BME280;56325;47.030;18.518;2023-05-10T16:01:53;100273.94;;;21.91;36.61
69214;BME280;56325;47.030;18.518;2023-05-10T16:04:28;100259.38;;;21.53;36.70
69214;BME280;56325;47.030;18.518;2023-05-10T16:07:04;100269.62;;;21.64;37.44
69214;BME280;56325;47.030;18.518;2023-05-10T16:09:38;100271.97;;;21.73;37.50
69214;BME280;56325;47.030;18.518;2023-05-10T16:12:13;100278.59;;;21.43;37.65
69214;BME280;56325;47.030;18.518;2023-05-10T16:14:47;100275.88;;;21.83;37.98
69214;BME280;56325;47.030;18.518;2023-05-10T16:17:22;100273.56;;;22.27;37.88
69214;BME280;56325;47.030;18.518;2023-05-10T16:19:57;100272.53;;;21.84;36.88
69214;BME280;56325;47.030;18.518;2023-05-10T16:22:32;100269.91;;;22.18;37.62
69214;BME280;56325;47.030;18.518;2023-05-10T16:25:08;100276.16;;;22.11;36.74
69214;BME280;56325;47.030;18.518;2023-05-10T16:28:36;100274.59;;;21.97;36.56
69214;BME280;56325;47.030;18.518;2023-05-10T16:35:50;100271.47;;;21.87;37.94
69214;BME280;56325;47.030;18.518;2023-05-10T16:42:07;100272.59;;;22.24;37.90
69214;BME280;56325;47.030;18.518;2023-05-10T16:45:07;100267.34;;;21.62;38.26
69214;BME280;56325;47.030;18.518;2023-05-10T16:48:35;100284.47;;;20.89;39.37
69214;BME280;56325;47.030;18.518;2023-05-10T16:52:02;100287.75;;;20.55;39.84
69214;BME280;56325;47.030;18.518;2023-05-10T16:55:02;100287.00;;;20.30;41.07
69214;BME280;56325;47.030;18.518;2023-05-10T20:30:10;100413.97;;;16.88;52.26
69214;BME280;56325;47.030;18.518;2023-05-10T20:32:45;100413.97;;;16.88;52.26
69214;BME280;56325;47.030;18.518;2023-05-10T20:35:19;100416.37;;;16.27;53.03
69214;BME280;56325;47.030;18.518;2023-05-10T20:37:54;100409.00;;;16.18;53.44
69214;BME280;56325;47.030;18.518;2023-05-10T20:40:28;100418.00;;;16.08;53.74
69214;BME280;56325;47.030;18.518;2023-05-10T20:43:03;100424.03;;;16.06;53.83
69214;BME280;56325;47.030;18.518;2023-05-10T20:45:39;100420.19;;;15.98;53.99
69214;BME280;56325;47.030;18.518;2023-05-10T20:48:14;100420.19;;;15.98;54.18
69214;BME280;56325;47.030;18.518;2023-05-10T20:50:49;100423.94;;;15.95;53.95
69214;BME280;56325;47.030;18.518;2023-05-10T20:53:24;100423.50;;;16.02;53.76
69214;BME280;56325;47.030;18.518;2023-05-10T20:55:58;100430.47;;;15.92;54.12
69214;BME280;56325;47.030;18.518;2023-05-10T20:58:33;100431.00;;;15.96;53.96
69214;BME280;56325;47.030;18.518;2023-05-10T21:01:09;100418.06;;;15.87;53.73
69214;BME280;56325;47.030;18.518;2023-05-10T21:03:44;100430.53;;;15.71;54.14
69214;BME280;56325;47.030;18.518;2023-05-10T21:06:18;100421.94;;;15.69;54.02
69214;BME280;56325;47.030;18.518;2023-05-10T21:08:53;100432.00;;;15.67;54.17
69214;BME280;56325;47.030;18.518;2023-05-10T21:11:28;100424.44;;;15.67;54.27
69214;BME280;56325;47.030;18.518;2023-05-10T21:14:02;100414.16;;;15.73;54.13
69214;BME280;56325;47.030;18.518;2023-05-10T21:16:38;100420.69;;;15.70;54.24
69214;BME280;56325;47.030;18.518;2023-05-10T21:19:13;100414.81;;;15.63;54.74
69214;BME280;56325;47.030;18.518;2023-05-10T21:21:48;100424.94;;;15.66;54.93
69214;BME280;56325;47.030;18.518;2023-05-10T21:24:23;100421.00;;;15.52;55.60
69214;BME280;56325;47.030;18.518;2023-05-10T21:26:57;100424.28;;;15.77;54.55
69214;BME280;56325;47.030;18.518;2023-05-10T21:29:32;100421.59;;;15.62;54.81
69214;BME280;56325;47.030;18.518;2023-05-10T21:32:08;100424.47;;;15.47;55.17
69214;BME280;56325;47.030;18.518;2023-05-10T21:34:43;100417.25;;;15.55;54.84
69214;BME280;56325;47.030;18.518;2023-05-10T21:37:17;100423.87;;;15.37;55.21
69214;BME280;56325;47.030;18.518;2023-05-10T21:39:52;100426.50;;;15.47;54.95
69214;BME280;56325;47.030;18.518;2023-05-10T21:42:26;100426.69;;;15.43;55.01
69214;BME280;56325;47.030;18.518;2023-05-10T21:45:01;100422.69;;;15.44;54.97
69214;BME280;56325;47.030;18.518;2023-05-10T21:47:36;100427.41;;;15.38;55.39
69214;BME280;56325;47.030;18.518;2023-05-10T21:50:11;100427.03;;;15.51;54.88
69214;BME280;56325;47.030;18.518;2023-05-10T21:52:45;100425.38;;;15.59;54.60
69214;BME280;56325;47.030;18.518;2023-05-10T21:55:20;100424.47;;;15.47;54.56
69214;BME280;56325;47.030;18.518;2023-05-10T21:57:54;100421.66;;;15.21;55.02
69214;BME280;56325;47.030;18.518;2023-05-10T22:03:13;100421.22;;;15.49;55.04
69214;BME280;56325;47.030;18.518;2023-05-10T22:05:48;100421.22;;;15.49;55.04
69214;BME280;56325;47.030;18.518;2023-05-10T22:08:22;100430.31;;;14.88;56.09
69214;BME280;56325;47.030;18.518;2023-05-10T22:10:57;100427.41;;;14.77;56.50
69214;BME280;56325;47.030;18.518;2023-05-10T22:13:32;100428.13;;;14.72;56.71
69214;BME280;56325;47.030;18.518;2023-05-10T22:16:06;100436.16;;;14.70;56.89
69214;BME280;56325;47.030;18.518;2023-05-10T22:18:43;100436.34;;;14.66;56.90
69214;BME280;56325;47.030;18.518;2023-05-10T22:21:18;100436.38;;;14.52;57.51
69214;BME280;56325;47.030;18.518;2023-05-10T22:23:52;100436.94;;;14.56;57.64
69214;BME280;56325;47.030;18.518;2023-05-10T22:26:27;100431.41;;;14.56;57.52
69214;BME280;56325;47.030;18.518;2023-05-10T22:29:01;100434.88;;;14.51;57.60
69214;BME280;56325;47.030;18.518;2023-05-10T22:31:36;100424.34;;;14.55;57.42
69214;BME280;56325;47.030;18.518;2023-05-10T22:34:12;100435.59;;;14.66;57.38
69214;BME280;56325;47.030;18.518;2023-05-10T22:36:46;100428.66;;;14.56;57.81
69214;BME280;56325;47.030;18.518;2023-05-10T22:39:22;100432.38;;;14.53;57.96
69214;BME280;56325;47.030;18.518;2023-05-10T22:41:56;100440.13;;;14.49;57.98
69214;BME280;56325;47.030;18.518;2023-05-10T22:44:31;100433.91;;;14.39;58.31
69214;BME280;56325;47.030;18.518;2023-05-10T22:47:05;100438.09;;;14.34;58.65
69214;BME280;56325;47.030;18.518;2023-05-10T22:49:42;100435.75;;;14.42;58.44
69214;BME280;56325;47.030;18.518;2023-05-10T22:52:16;100431.81;;;14.34;58.71
69214;BME280;56325;47.030;18.518;2023-05-10T22:54:51;100433.25;;;14.44;58.60
69214;BME280;56325;47.030;18.518;2023-05-10T22:57:25;100431.25;;;14.45;58.38
69214;BME280;56325;47.030;18.518;2023-05-10T23:00:00;100432.22;;;14.41;58.51
69214;BME280;56325;47.030;18.518;2023-05-10T23:02:36;100430.56;;;14.35;58.80
69214;BME280;56325;47.030;18.518;2023-05-10T23:05:12;100430.19;;;14.27;58.77
69214;BME280;56325;47.030;18.518;2023-05-10T23:07:47;100433.66;;;14.07;59.58
69214;BME280;56325;47.030;18.518;2023-05-10T23:10:25;100429.34;;;14.21;59.31
69214;BME280;56325;47.030;18.518;2023-05-10T23:13:00;100434.31;;;14.17;59.28
69214;BME280;56325;47.030;18.518;2023-05-10T23:15:34;100430.50;;;14.00;59.78
69214;BME280;56325;47.030;18.518;2023-05-10T23:18:09;100435.00;;;14.12;59.48
69214;BME280;56325;47.030;18.518;2023-05-10T23:20:46;100439.28;;;13.98;59.73
69214;BME280;56325;47.030;18.518;2023-05-10T23:23:20;100435.47;;;13.96;59.89
69214;BME280;56325;47.030;18.518;2023-05-10T23:25:55;100437.94;;;13.94;59.88
69214;BME280;56325;47.030;18.518;2023-05-10T23:28:29;100434.41;;;13.93;59.80
69214;BME280;56325;47.030;18.518;2023-05-10T23:31:03;100441.78;;;13.82;60.14
69214;BME280;56325;47.030;18.518;2023-05-10T23:33:38;100436.44;;;13.78;60.39
69214;BME280;56325;47.030;18.518;2023-05-10T23:36:14;100432.72;;;13.81;60.42
69214;BME280;56325;47.030;18.518;2023-05-10T23:38:49;100430.31;;;13.89;59.93
69214;BME280;56325;47.030;18.518;2023-05-10T23:41:23;100429.66;;;13.94;59.90
69214;BME280;56325;47.030;18.518;2023-05-10T23:43:59;100430.31;;;13.89;59.79
69214;BME280;56325;47.030;18.518;2023-05-10T23:46:34;100433.78;;;13.84;60.28
69214;BME280;56325;47.030;18.518;2023-05-10T23:49:08;100431.69;;;13.78;60.37
69214;BME280;56325;47.030;18.518;2023-05-10T23:51:44;100435.03;;;13.83;59.94
69214;BME280;56325;47.030;18.518;2023-05-10T23:54:19;100440.84;;;13.85;60.43
69214;BME280;56325;47.030;18.518;2023-05-10T23:56:53;100437.50;;;13.81;60.59
69214;BME280;56325;47.030;18.518;2023-05-10T23:59:28;100438.16;;;13.75;60.86
